AIZ281 LLBG-LKPR
Flight info
| Callsign | AIZ281 |
|---|---|
| Flight time | N/A |
| Altitude | 36000 |
| Route | SUVAS L53 ANIDE DCT RUPUM DCT RIPLI DCT EVIVI DCT OKANA DCT OKLOP DCT TONDO DCT BEGLA DCT NAVTI DCT BODAL DCT VLM |
| Aircraft | A21N/M-SDE2E3FGHIRWXY/LB1 |
Departure
| Time | 2026-05-01 08:07 |
|---|---|
| Airport | Ben Gurion International Airport (LLBG) |
Arrival
| Time | N/A |
|---|---|
| Airport | Václav Havel Airport Prague (LKPR) |
| Time | Latitude | Longitude | Altitude | Speed | Heading |
|---|---|---|---|---|---|
| 2026-05-01 07:43 | 32.00603 | 34.87501 | 119 ft | 0 kts | 243° |
| 2026-05-01 07:50 | 32.00599 | 34.87493 | 123 ft | 0 kts | 243° |
| 2026-05-01 07:51 | 32.00603 | 34.87501 | 123 ft | 0 kts | 243° |
| 2026-05-01 07:59 | 32.00613 | 34.87524 | 118 ft | 4 kts | 244° |
| 2026-05-01 08:00 | 32.00654 | 34.87570 | 123 ft | 4 kts | 122° |
| 2026-05-01 08:01 | 32.00628 | 34.87619 | 122 ft | 1 kts | 121° |
| 2026-05-01 08:03 | 32.00625 | 34.87624 | 122 ft | 9 kts | 121° |
| 2026-05-01 08:04 | 32.00536 | 34.87872 | 121 ft | 9 kts | 61° |
| 2026-05-01 08:04 | 32.00746 | 34.88034 | 119 ft | 36 kts | 32° |
| 2026-05-01 08:05 | 32.01229 | 34.88383 | 120 ft | 44 kts | 34° |
| 2026-05-01 08:05 | 32.01433 | 34.88647 | 119 ft | 44 kts | 60° |
| 2026-05-01 08:05 | 32.01518 | 34.88989 | 119 ft | 44 kts | 79° |
| 2026-05-01 08:06 | 32.01564 | 34.89240 | 120 ft | 12 kts | 55° |
| 2026-05-01 08:06 | 32.01737 | 34.89242 | 118 ft | 11 kts | 340° |
| 2026-05-01 08:07 | 32.01725 | 34.88951 | 124 ft | 65 kts | 260° |
| 2026-05-01 08:07 | 32.01403 | 34.86910 | 741 ft | 151 kts | 259° |
| 2026-05-01 08:08 | 32.01143 | 34.85714 | 1663 ft | 150 kts | 254° |
| 2026-05-01 08:08 | 32.00575 | 34.83119 | 3395 ft | 178 kts | 261° |
| 2026-05-01 08:09 | 32.00041 | 34.79990 | 4915 ft | 215 kts | 256° |
| 2026-05-01 08:09 | 31.99678 | 34.78200 | 5605 ft | 234 kts | 257° |
| 2026-05-01 08:09 | 31.99290 | 34.76284 | 6402 ft | 247 kts | 258° |
| 2026-05-01 08:10 | 31.99856 | 34.72173 | 8133 ft | 270 kts | 290° |
| 2026-05-01 08:10 | 32.01245 | 34.67977 | 10368 ft | 282 kts | 290° |
| 2026-05-01 08:11 | 32.02711 | 34.63286 | 11623 ft | 325 kts | 282° |
| 2026-05-01 08:11 | 32.03039 | 34.57904 | 13634 ft | 336 kts | 272° |
| 2026-05-01 08:12 | 32.03282 | 34.52341 | 15581 ft | 342 kts | 272° |
| 2026-05-01 08:12 | 32.03417 | 34.49536 | 16587 ft | 344 kts | 272° |
| 2026-05-01 08:12 | 32.03733 | 34.43872 | 18522 ft | 349 kts | 276° |
| 2026-05-01 08:13 | 32.04219 | 34.41059 | 19346 ft | 353 kts | 284° |
| 2026-05-01 08:13 | 32.04959 | 34.38286 | 20151 ft | 356 kts | 286° |
| 2026-05-01 08:13 | 32.06623 | 34.32741 | 21725 ft | 362 kts | 287° |
| 2026-05-01 08:14 | 32.07486 | 34.29936 | 22486 ft | 365 kts | 287° |
| 2026-05-01 08:14 | 32.08356 | 34.27120 | 23236 ft | 367 kts | 287° |
| 2026-05-01 08:14 | 32.09235 | 34.24274 | 23915 ft | 370 kts | 287° |
| 2026-05-01 08:14 | 32.10122 | 34.21406 | 24526 ft | 373 kts | 287° |
| 2026-05-01 08:15 | 32.11013 | 34.18522 | 25130 ft | 376 kts | 287° |
| 2026-05-01 08:15 | 32.12811 | 34.12697 | 26279 ft | 381 kts | 287° |
| 2026-05-01 08:15 | 32.13718 | 34.09753 | 26821 ft | 383 kts | 287° |
| 2026-05-01 08:16 | 32.14620 | 34.06826 | 27336 ft | 385 kts | 287° |
| 2026-05-01 08:16 | 32.15537 | 34.03844 | 27828 ft | 388 kts | 287° |
| 2026-05-01 08:16 | 32.16458 | 34.00844 | 28310 ft | 390 kts | 287° |
| 2026-05-01 08:16 | 32.17444 | 33.97844 | 28785 ft | 394 kts | 290° |
| 2026-05-01 08:17 | 32.18588 | 33.94885 | 29284 ft | 397 kts | 292° |
| 2026-05-01 08:17 | 32.19813 | 33.91954 | 29782 ft | 399 kts | 294° |
| 2026-05-01 08:17 | 32.21068 | 33.89032 | 30213 ft | 402 kts | 294° |
| 2026-05-01 08:17 | 32.22335 | 33.86082 | 30572 ft | 404 kts | 294° |
| 2026-05-01 08:18 | 32.23588 | 33.83136 | 31045 ft | 403 kts | 293° |
| 2026-05-01 08:18 | 32.26062 | 33.77224 | 32044 ft | 400 kts | 293° |
| 2026-05-01 08:19 | 32.28477 | 33.71370 | 32957 ft | 398 kts | 293° |
| 2026-05-01 08:19 | 32.29679 | 33.68444 | 33418 ft | 397 kts | 293° |
| 2026-05-01 08:19 | 32.30880 | 33.65518 | 33921 ft | 394 kts | 293° |
| 2026-05-01 08:19 | 32.32072 | 33.62612 | 34328 ft | 392 kts | 293° |
| 2026-05-01 08:20 | 32.33264 | 33.59704 | 34660 ft | 392 kts | 293° |
| 2026-05-01 08:20 | 32.34454 | 33.56802 | 34991 ft | 392 kts | 293° |
| 2026-05-01 08:20 | 32.35644 | 33.53895 | 35316 ft | 392 kts | 293° |
| 2026-05-01 08:20 | 32.36831 | 33.50993 | 35641 ft | 392 kts | 293° |
| 2026-05-01 08:21 | 32.38018 | 33.48091 | 35924 ft | 392 kts | 292° |
| 2026-05-01 08:21 | 32.40394 | 33.42269 | 36008 ft | 392 kts | 292° |
| 2026-05-01 08:22 | 32.42790 | 33.36383 | 36010 ft | 406 kts | 292° |
| 2026-05-01 08:22 | 32.45263 | 33.30304 | 36006 ft | 410 kts | 293° |
| 2026-05-01 08:23 | 32.47741 | 33.24213 | 36008 ft | 410 kts | 292° |
| 2026-05-01 08:23 | 32.50213 | 33.18124 | 36008 ft | 410 kts | 292° |
| 2026-05-01 08:24 | 32.52680 | 33.12032 | 36002 ft | 410 kts | 293° |
| 2026-05-01 08:24 | 32.55141 | 33.05943 | 36009 ft | 409 kts | 293° |
| 2026-05-01 08:25 | 32.57598 | 32.99855 | 36006 ft | 409 kts | 293° |
| 2026-05-01 08:25 | 32.60038 | 32.93798 | 36006 ft | 409 kts | 293° |
| 2026-05-01 08:26 | 32.62490 | 32.87699 | 36011 ft | 409 kts | 293° |
| 2026-05-01 08:26 | 32.64935 | 32.81608 | 36008 ft | 409 kts | 293° |
| 2026-05-01 08:27 | 32.67379 | 32.75510 | 36003 ft | 408 kts | 293° |
| 2026-05-01 08:27 | 32.69819 | 32.69412 | 36007 ft | 409 kts | 293° |
| 2026-05-01 08:28 | 32.72254 | 32.63313 | 36002 ft | 408 kts | 293° |
| 2026-05-01 08:28 | 32.74685 | 32.57218 | 36006 ft | 408 kts | 293° |
| 2026-05-01 08:29 | 32.77093 | 32.51164 | 36000 ft | 408 kts | 293° |
| 2026-05-01 08:29 | 32.79512 | 32.45073 | 36000 ft | 407 kts | 293° |
| 2026-05-01 08:30 | 32.82024 | 32.39047 | 36007 ft | 409 kts | 298° |
| 2026-05-01 08:30 | 32.85132 | 32.33351 | 36004 ft | 410 kts | 302° |
| 2026-05-01 08:31 | 32.88429 | 32.27824 | 36005 ft | 409 kts | 303° |
| 2026-05-01 08:31 | 32.91709 | 32.22289 | 36011 ft | 409 kts | 302° |
| 2026-05-01 08:32 | 32.94928 | 32.16756 | 35996 ft | 409 kts | 302° |
| 2026-05-01 08:32 | 32.98145 | 32.11177 | 35998 ft | 409 kts | 302° |
| 2026-05-01 08:33 | 33.01361 | 32.05581 | 36005 ft | 408 kts | 302° |
| 2026-05-01 08:33 | 33.04560 | 32.00013 | 36001 ft | 406 kts | 302° |
| 2026-05-01 08:34 | 33.07748 | 31.94457 | 36002 ft | 406 kts | 302° |
| 2026-05-01 08:34 | 33.10935 | 31.88898 | 36000 ft | 406 kts | 302° |
| 2026-05-01 08:35 | 33.14117 | 31.83335 | 36001 ft | 406 kts | 302° |
| 2026-05-01 08:35 | 33.17300 | 31.77765 | 36007 ft | 405 kts | 302° |
| 2026-05-01 08:36 | 33.20453 | 31.72238 | 36003 ft | 405 kts | 302° |
| 2026-05-01 08:36 | 33.23619 | 31.66681 | 36004 ft | 405 kts | 302° |
| 2026-05-01 08:37 | 33.26785 | 31.61114 | 36003 ft | 405 kts | 302° |
| 2026-05-01 08:37 | 33.29948 | 31.55544 | 36004 ft | 405 kts | 302° |
| 2026-05-01 08:38 | 33.33111 | 31.49967 | 36004 ft | 404 kts | 302° |
| 2026-05-01 08:38 | 33.36261 | 31.44404 | 36004 ft | 404 kts | 302° |
| 2026-05-01 08:39 | 33.39385 | 31.38878 | 36005 ft | 403 kts | 302° |
| 2026-05-01 08:39 | 33.42529 | 31.33309 | 36004 ft | 403 kts | 302° |
| 2026-05-01 08:40 | 33.47237 | 31.24953 | 36022 ft | 403 kts | 302° |
| 2026-05-01 08:40 | 33.50369 | 31.19384 | 35998 ft | 402 kts | 302° |
| 2026-05-01 08:41 | 33.53497 | 31.13813 | 36004 ft | 402 kts | 302° |
| 2026-05-01 08:41 | 33.56596 | 31.08286 | 36009 ft | 402 kts | 302° |
| 2026-05-01 08:42 | 33.59714 | 31.02716 | 36009 ft | 402 kts | 302° |
| 2026-05-01 08:42 | 33.62828 | 30.97146 | 36005 ft | 402 kts | 302° |
| 2026-05-01 08:43 | 33.65939 | 30.91572 | 36009 ft | 401 kts | 302° |
| 2026-05-01 08:43 | 33.69045 | 30.85997 | 36007 ft | 401 kts | 302° |
| 2026-05-01 08:44 | 33.72143 | 30.80429 | 36000 ft | 401 kts | 302° |
| 2026-05-01 08:44 | 33.75239 | 30.74857 | 36004 ft | 401 kts | 302° |
| 2026-05-01 08:45 | 33.78312 | 30.69316 | 36007 ft | 401 kts | 302° |
| 2026-05-01 08:45 | 33.81407 | 30.63728 | 36010 ft | 401 kts | 302° |
| 2026-05-01 08:46 | 33.84497 | 30.58141 | 36002 ft | 401 kts | 302° |
| 2026-05-01 08:46 | 33.87583 | 30.52552 | 36004 ft | 401 kts | 302° |
| 2026-05-01 08:47 | 33.90667 | 30.46959 | 36010 ft | 401 kts | 302° |
| 2026-05-01 08:47 | 33.91148 | 30.46085 | 36010 ft | 401 kts | 302° |
| 2026-05-01 08:48 | 33.94099 | 30.40723 | 36003 ft | 400 kts | 302° |
| 2026-05-01 08:48 | 33.97165 | 30.35145 | 36004 ft | 399 kts | 301° |
| 2026-05-01 08:49 | 34.00230 | 30.29562 | 36004 ft | 399 kts | 301° |
| 2026-05-01 08:49 | 34.03286 | 30.23985 | 36002 ft | 399 kts | 301° |
| 2026-05-01 08:50 | 34.06332 | 30.18416 | 36001 ft | 399 kts | 301° |
| 2026-05-01 08:50 | 34.09367 | 30.12859 | 36001 ft | 399 kts | 301° |
| 2026-05-01 08:51 | 34.12414 | 30.07272 | 36001 ft | 398 kts | 301° |
| 2026-05-01 08:51 | 34.15450 | 30.01696 | 36001 ft | 397 kts | 302° |
| 2026-05-01 08:52 | 34.18893 | 29.96451 | 36002 ft | 400 kts | 309° |
| 2026-05-01 08:52 | 34.22042 | 29.92355 | 36001 ft | 400 kts | 310° |
| 2026-05-01 08:53 | 34.25882 | 29.87476 | 36002 ft | 400 kts | 310° |
| 2026-05-01 08:53 | 34.29688 | 29.82564 | 36003 ft | 400 kts | 309° |
| 2026-05-01 08:54 | 34.33467 | 29.77616 | 36011 ft | 399 kts | 309° |
| 2026-05-01 08:54 | 34.37232 | 29.72659 | 36004 ft | 399 kts | 309° |
| 2026-05-01 08:55 | 34.40988 | 29.67706 | 36008 ft | 399 kts | 309° |
| 2026-05-01 08:55 | 34.44742 | 29.62752 | 36004 ft | 399 kts | 309° |
| 2026-05-01 08:56 | 34.48473 | 29.57824 | 36000 ft | 399 kts | 309° |
| 2026-05-01 08:56 | 34.52227 | 29.52858 | 36006 ft | 399 kts | 309° |
| 2026-05-01 08:57 | 34.55971 | 29.47900 | 36000 ft | 398 kts | 309° |
| 2026-05-01 08:57 | 34.59712 | 29.42936 | 36001 ft | 398 kts | 309° |
| 2026-05-01 08:58 | 34.63445 | 29.37976 | 36005 ft | 398 kts | 309° |
| 2026-05-01 08:58 | 34.67176 | 29.33012 | 36004 ft | 398 kts | 309° |
| 2026-05-01 08:59 | 34.70907 | 29.28040 | 35999 ft | 398 kts | 309° |
| 2026-05-01 08:59 | 34.74616 | 29.23092 | 36001 ft | 398 kts | 308° |
| 2026-05-01 09:00 | 34.78349 | 29.18102 | 36007 ft | 398 kts | 308° |
| 2026-05-01 09:00 | 34.82076 | 29.13114 | 36001 ft | 398 kts | 308° |
| 2026-05-01 09:01 | 34.85799 | 29.08126 | 36001 ft | 398 kts | 308° |
| 2026-05-01 09:01 | 34.89522 | 29.03130 | 36001 ft | 398 kts | 308° |
| 2026-05-01 09:02 | 34.93220 | 28.98160 | 35997 ft | 398 kts | 308° |
| 2026-05-01 09:02 | 34.96942 | 28.93151 | 35999 ft | 398 kts | 308° |
| 2026-05-01 09:03 | 35.00668 | 28.88127 | 36010 ft | 399 kts | 308° |
| 2026-05-01 09:03 | 35.04382 | 28.83114 | 35998 ft | 398 kts | 308° |
| 2026-05-01 09:04 | 35.08094 | 28.78096 | 35999 ft | 398 kts | 308° |
| 2026-05-01 09:04 | 35.11801 | 28.73077 | 35998 ft | 398 kts | 308° |
| 2026-05-01 09:05 | 35.15507 | 28.68052 | 35996 ft | 398 kts | 308° |
| 2026-05-01 09:05 | 35.19213 | 28.63020 | 35999 ft | 397 kts | 308° |
| 2026-05-01 09:06 | 35.22890 | 28.58019 | 35998 ft | 397 kts | 308° |
| 2026-05-01 09:06 | 35.26584 | 28.52988 | 36001 ft | 397 kts | 308° |
| 2026-05-01 09:07 | 35.30277 | 28.47952 | 35996 ft | 397 kts | 308° |
| 2026-05-01 09:07 | 35.33965 | 28.42914 | 35996 ft | 397 kts | 308° |
| 2026-05-01 09:08 | 35.37652 | 28.37870 | 36001 ft | 397 kts | 308° |
| 2026-05-01 09:08 | 35.41336 | 28.32825 | 36000 ft | 396 kts | 308° |
| 2026-05-01 09:09 | 35.44990 | 28.27812 | 35999 ft | 396 kts | 308° |
| 2026-05-01 09:09 | 35.48661 | 28.22768 | 35998 ft | 396 kts | 308° |
| 2026-05-01 09:10 | 35.52331 | 28.17717 | 36001 ft | 396 kts | 308° |
| 2026-05-01 09:10 | 35.55824 | 28.12904 | 36002 ft | 396 kts | 307° |
| 2026-05-01 09:11 | 35.59488 | 28.07847 | 35998 ft | 396 kts | 307° |
| 2026-05-01 09:11 | 35.63151 | 28.02785 | 36001 ft | 395 kts | 307° |
| 2026-05-01 09:12 | 35.66781 | 27.97760 | 36001 ft | 395 kts | 307° |
| 2026-05-01 09:12 | 35.70416 | 27.92721 | 36032 ft | 395 kts | 307° |
| 2026-05-01 09:13 | 35.74063 | 27.87658 | 36007 ft | 394 kts | 307° |
| 2026-05-01 09:13 | 35.77698 | 27.82603 | 36000 ft | 394 kts | 307° |
| 2026-05-01 09:14 | 35.81329 | 27.77546 | 36008 ft | 394 kts | 307° |
| 2026-05-01 09:14 | 35.84966 | 27.72474 | 36006 ft | 394 kts | 307° |
| 2026-05-01 09:15 | 35.88591 | 27.67410 | 36006 ft | 394 kts | 307° |
| 2026-05-01 09:15 | 35.92194 | 27.62372 | 36006 ft | 394 kts | 307° |
| 2026-05-01 09:16 | 35.95820 | 27.57292 | 35994 ft | 394 kts | 307° |
| 2026-05-01 09:17 | 36.01251 | 27.49669 | 36011 ft | 394 kts | 307° |
| 2026-05-01 09:17 | 36.06668 | 27.42052 | 36015 ft | 392 kts | 307° |
| 2026-05-01 09:18 | 36.11945 | 27.34350 | 36002 ft | 390 kts | 303° |
| 2026-05-01 09:19 | 36.16753 | 27.26296 | 36001 ft | 389 kts | 302° |
| 2026-05-01 09:20 | 36.21556 | 27.18178 | 36006 ft | 389 kts | 302° |
| 2026-05-01 09:21 | 36.27999 | 27.07394 | 36016 ft | 389 kts | 302° |
| 2026-05-01 09:21 | 36.32808 | 26.99330 | 36014 ft | 389 kts | 302° |
| 2026-05-01 09:22 | 36.39230 | 26.88528 | 36021 ft | 389 kts | 302° |
| 2026-05-01 09:23 | 36.44039 | 26.80418 | 36029 ft | 388 kts | 302° |
| 2026-05-01 09:24 | 36.48827 | 26.72321 | 36031 ft | 388 kts | 302° |
| 2026-05-01 09:25 | 36.55189 | 26.61532 | 36027 ft | 387 kts | 302° |
| 2026-05-01 09:26 | 36.59965 | 26.53412 | 36021 ft | 387 kts | 302° |
| 2026-05-01 09:26 | 36.64730 | 26.45291 | 36037 ft | 387 kts | 302° |
| 2026-05-01 09:27 | 36.69488 | 26.37162 | 36048 ft | 387 kts | 302° |
| 2026-05-01 09:28 | 36.72657 | 26.31736 | 36043 ft | 387 kts | 302° |
| 2026-05-01 09:28 | 36.75804 | 26.26341 | 36038 ft | 387 kts | 302° |
| 2026-05-01 09:29 | 36.80545 | 26.18197 | 36045 ft | 386 kts | 301° |
| 2026-05-01 09:30 | 36.85280 | 26.10042 | 36049 ft | 386 kts | 301° |
| 2026-05-01 09:30 | 36.90005 | 26.01885 | 36041 ft | 386 kts | 301° |
| 2026-05-01 09:31 | 36.93131 | 25.96478 | 36054 ft | 386 kts | 301° |
| 2026-05-01 09:32 | 36.97847 | 25.88303 | 36058 ft | 387 kts | 301° |
| 2026-05-01 09:32 | 37.02558 | 25.80118 | 36060 ft | 386 kts | 301° |
| 2026-05-01 09:33 | 37.05690 | 25.74665 | 36069 ft | 386 kts | 301° |
| 2026-05-01 09:34 | 37.10391 | 25.66463 | 36068 ft | 386 kts | 301° |
| 2026-05-01 09:34 | 37.15255 | 25.58395 | 36100 ft | 390 kts | 307° |
| 2026-05-01 09:35 | 37.22046 | 25.52401 | 36077 ft | 412 kts | 327° |
| 2026-05-01 09:36 | 37.27416 | 25.49723 | 36079 ft | 417 kts | 330° |
| 2026-05-01 09:36 | 37.32886 | 25.47248 | 36077 ft | 418 kts | 331° |
| 2026-05-01 09:37 | 37.38324 | 25.44782 | 36075 ft | 417 kts | 330° |
| 2026-05-01 09:37 | 37.46528 | 25.40973 | 36073 ft | 420 kts | 330° |
| 2026-05-01 09:38 | 37.54743 | 25.37125 | 36069 ft | 420 kts | 330° |
| 2026-05-01 09:39 | 37.62960 | 25.33270 | 36085 ft | 420 kts | 330° |
| 2026-05-01 09:39 | 37.68396 | 25.30716 | 36100 ft | 420 kts | 330° |
| 2026-05-01 09:40 | 37.76617 | 25.26844 | 36099 ft | 420 kts | 330° |
| 2026-05-01 09:41 | 37.82090 | 25.24262 | 36110 ft | 420 kts | 330° |
| 2026-05-01 09:41 | 37.89377 | 25.20817 | 36113 ft | 420 kts | 330° |
| 2026-05-01 09:42 | 37.94852 | 25.18224 | 36116 ft | 420 kts | 330° |
| 2026-05-01 09:43 | 38.05790 | 25.13030 | 36127 ft | 420 kts | 330° |
| 2026-05-01 09:43 | 38.11257 | 25.10429 | 36127 ft | 419 kts | 330° |
| 2026-05-01 09:44 | 38.19496 | 25.06496 | 36130 ft | 423 kts | 330° |
| 2026-05-01 09:45 | 38.24971 | 25.03880 | 36135 ft | 423 kts | 330° |
| 2026-05-01 09:45 | 38.33247 | 24.99920 | 36147 ft | 424 kts | 330° |
| 2026-05-01 09:46 | 38.38775 | 24.97267 | 36143 ft | 425 kts | 330° |
| 2026-05-01 09:46 | 38.44327 | 24.94597 | 36143 ft | 426 kts | 331° |
| 2026-05-01 09:47 | 38.49883 | 24.91924 | 36140 ft | 427 kts | 331° |
| 2026-05-01 09:47 | 38.55438 | 24.89247 | 36148 ft | 427 kts | 330° |
| 2026-05-01 09:48 | 38.60960 | 24.86581 | 36201 ft | 427 kts | 331° |
| 2026-05-01 09:48 | 38.66537 | 24.83880 | 36154 ft | 430 kts | 331° |
| 2026-05-01 09:49 | 38.72137 | 24.81167 | 36160 ft | 430 kts | 331° |
| 2026-05-01 09:49 | 38.77711 | 24.78463 | 36158 ft | 430 kts | 331° |
| 2026-05-01 09:50 | 38.83306 | 24.75744 | 36175 ft | 430 kts | 331° |
| 2026-05-01 09:50 | 38.88899 | 24.73019 | 36176 ft | 432 kts | 331° |
| 2026-05-01 09:51 | 38.94486 | 24.70293 | 36176 ft | 432 kts | 331° |
| 2026-05-01 09:51 | 39.00116 | 24.67543 | 36178 ft | 432 kts | 331° |
| 2026-05-01 09:52 | 39.05738 | 24.64792 | 36178 ft | 432 kts | 331° |
| 2026-05-01 09:52 | 39.11368 | 24.62031 | 36192 ft | 434 kts | 331° |
| 2026-05-01 09:53 | 39.17016 | 24.59255 | 36189 ft | 435 kts | 331° |
| 2026-05-01 09:53 | 39.22677 | 24.56471 | 36195 ft | 435 kts | 331° |
| 2026-05-01 09:54 | 39.28298 | 24.53702 | 36197 ft | 435 kts | 331° |
| 2026-05-01 09:54 | 39.33950 | 24.50911 | 36213 ft | 436 kts | 332° |
| 2026-05-01 09:55 | 39.39623 | 24.48104 | 36211 ft | 436 kts | 332° |
| 2026-05-01 09:55 | 39.45301 | 24.45292 | 36210 ft | 436 kts | 332° |
| 2026-05-01 09:56 | 39.50982 | 24.42473 | 36213 ft | 436 kts | 332° |
| 2026-05-01 09:56 | 39.56652 | 24.39654 | 36219 ft | 437 kts | 332° |
| 2026-05-01 09:57 | 39.62333 | 24.36824 | 36219 ft | 438 kts | 332° |
| 2026-05-01 09:57 | 39.68028 | 24.33983 | 36220 ft | 438 kts | 332° |
| 2026-05-01 09:58 | 39.73721 | 24.31138 | 36224 ft | 438 kts | 332° |
| 2026-05-01 09:58 | 39.79380 | 24.28304 | 36236 ft | 438 kts | 332° |
| 2026-05-01 09:59 | 39.85082 | 24.25444 | 36234 ft | 439 kts | 332° |
| 2026-05-01 09:59 | 39.90785 | 24.22579 | 36231 ft | 439 kts | 332° |
| 2026-05-01 10:00 | 39.96488 | 24.19708 | 36235 ft | 439 kts | 332° |
| 2026-05-01 10:00 | 40.02189 | 24.16833 | 36261 ft | 439 kts | 333° |
| 2026-05-01 10:01 | 40.07900 | 24.13946 | 36238 ft | 441 kts | 333° |
| 2026-05-01 10:01 | 40.13623 | 24.11050 | 36238 ft | 441 kts | 333° |
| 2026-05-01 10:02 | 40.19345 | 24.08150 | 36239 ft | 441 kts | 333° |
| 2026-05-01 10:02 | 40.25030 | 24.05263 | 36240 ft | 440 kts | 333° |
| 2026-05-01 10:03 | 40.30750 | 24.02353 | 36230 ft | 440 kts | 333° |
| 2026-05-01 10:03 | 40.36461 | 23.99442 | 36246 ft | 440 kts | 333° |
| 2026-05-01 10:04 | 40.42167 | 23.96527 | 36234 ft | 440 kts | 333° |
| 2026-05-01 10:04 | 40.47878 | 23.93604 | 36247 ft | 440 kts | 333° |
| 2026-05-01 10:05 | 40.53563 | 23.90688 | 36243 ft | 442 kts | 333° |
| 2026-05-01 10:05 | 40.59293 | 23.87746 | 36241 ft | 442 kts | 333° |
| 2026-05-01 10:06 | 40.65030 | 23.84795 | 36235 ft | 442 kts | 333° |
| 2026-05-01 10:06 | 40.70764 | 23.81840 | 36244 ft | 442 kts | 333° |
| 2026-05-01 10:07 | 40.76510 | 23.78871 | 36235 ft | 444 kts | 333° |
| 2026-05-01 10:07 | 40.82236 | 23.75909 | 36237 ft | 444 kts | 333° |
| 2026-05-01 10:08 | 40.90875 | 23.71431 | 36230 ft | 445 kts | 333° |
| 2026-05-01 10:09 | 40.96645 | 23.68429 | 36225 ft | 446 kts | 334° |
| 2026-05-01 10:09 | 41.02431 | 23.65416 | 36220 ft | 447 kts | 334° |
| 2026-05-01 10:10 | 41.08219 | 23.62398 | 36222 ft | 447 kts | 334° |
| 2026-05-01 10:10 | 41.16907 | 23.57853 | 36221 ft | 447 kts | 334° |
| 2026-05-01 10:11 | 41.22699 | 23.54817 | 36214 ft | 448 kts | 334° |
| 2026-05-01 10:11 | 41.28497 | 23.51772 | 36213 ft | 448 kts | 334° |
| 2026-05-01 10:12 | 41.33316 | 23.49238 | 36212 ft | 448 kts | 334° |
| 2026-05-01 10:13 | 41.42890 | 23.44001 | 36214 ft | 446 kts | 331° |
| 2026-05-01 10:13 | 41.48467 | 23.40377 | 36214 ft | 445 kts | 330° |
| 2026-05-01 10:14 | 41.56784 | 23.34829 | 36209 ft | 445 kts | 330° |
| 2026-05-01 10:14 | 41.62354 | 23.31160 | 36205 ft | 446 kts | 330° |
| 2026-05-01 10:15 | 41.67912 | 23.27515 | 36214 ft | 446 kts | 330° |
| 2026-05-01 10:15 | 41.73446 | 23.23883 | 36222 ft | 446 kts | 330° |
| 2026-05-01 10:16 | 41.79017 | 23.20220 | 36216 ft | 446 kts | 330° |
| 2026-05-01 10:17 | 41.87381 | 23.14701 | 36216 ft | 447 kts | 330° |
| 2026-05-01 10:17 | 41.95757 | 23.09158 | 36211 ft | 447 kts | 331° |
| 2026-05-01 10:18 | 42.04128 | 23.03604 | 36223 ft | 447 kts | 330° |
| 2026-05-01 10:19 | 42.09709 | 22.99890 | 36225 ft | 448 kts | 331° |
| 2026-05-01 10:19 | 42.15293 | 22.96168 | 36226 ft | 448 kts | 331° |
| 2026-05-01 10:20 | 42.23640 | 22.90592 | 36230 ft | 448 kts | 331° |
| 2026-05-01 10:20 | 42.29225 | 22.86850 | 36240 ft | 448 kts | 331° |
| 2026-05-01 10:21 | 42.37594 | 22.81229 | 36249 ft | 449 kts | 331° |
| 2026-05-01 10:22 | 42.45986 | 22.75577 | 36254 ft | 449 kts | 331° |
| 2026-05-01 10:23 | 42.54332 | 22.69939 | 36265 ft | 449 kts | 331° |
| 2026-05-01 10:23 | 42.62707 | 22.64263 | 36266 ft | 449 kts | 331° |
| 2026-05-01 10:24 | 42.73884 | 22.56661 | 36271 ft | 449 kts | 332° |
| 2026-05-01 10:25 | 42.85016 | 22.48900 | 36274 ft | 449 kts | 328° |
| 2026-05-01 10:26 | 42.90363 | 22.44497 | 36271 ft | 449 kts | 327° |
| 2026-05-01 10:27 | 43.00946 | 22.35490 | 36269 ft | 450 kts | 327° |
| 2026-05-01 10:28 | 43.08757 | 22.28820 | 36282 ft | 449 kts | 327° |
| 2026-05-01 10:28 | 43.16719 | 22.22010 | 36282 ft | 449 kts | 327° |
| 2026-05-01 10:29 | 43.24643 | 22.15211 | 36300 ft | 450 kts | 327° |
| 2026-05-01 10:30 | 43.34400 | 22.06811 | 36312 ft | 450 kts | 327° |
| 2026-05-01 10:31 | 43.45008 | 21.97641 | 36313 ft | 451 kts | 328° |
| 2026-05-01 10:32 | 43.52974 | 21.90730 | 36308 ft | 451 kts | 328° |
| 2026-05-01 10:33 | 43.63549 | 21.81521 | 36311 ft | 451 kts | 327° |
| 2026-05-01 10:34 | 43.71486 | 21.74583 | 36322 ft | 450 kts | 328° |
| 2026-05-01 10:34 | 43.76773 | 21.69950 | 36308 ft | 450 kts | 328° |
| 2026-05-01 10:35 | 43.84723 | 21.62966 | 36322 ft | 451 kts | 328° |
| 2026-05-01 10:35 | 43.90019 | 21.58299 | 36318 ft | 451 kts | 328° |
| 2026-05-01 10:36 | 43.97959 | 21.51285 | 36314 ft | 451 kts | 328° |
| 2026-05-01 10:37 | 44.03250 | 21.46598 | 36309 ft | 451 kts | 328° |
| 2026-05-01 10:37 | 44.11192 | 21.39545 | 36313 ft | 451 kts | 328° |
| 2026-05-01 10:38 | 44.16481 | 21.34835 | 36315 ft | 451 kts | 328° |
| 2026-05-01 10:38 | 44.21685 | 21.29919 | 36310 ft | 452 kts | 326° |
| 2026-05-01 10:39 | 44.26754 | 21.24718 | 36316 ft | 452 kts | 325° |
| 2026-05-01 10:39 | 44.31777 | 21.19507 | 36316 ft | 452 kts | 325° |
| 2026-05-01 10:40 | 44.36843 | 21.14284 | 36316 ft | 452 kts | 325° |
| 2026-05-01 10:40 | 44.41924 | 21.09064 | 36320 ft | 453 kts | 325° |
| 2026-05-01 10:41 | 44.47006 | 21.03841 | 36329 ft | 453 kts | 326° |
| 2026-05-01 10:42 | 44.54609 | 20.96002 | 36327 ft | 453 kts | 326° |
| 2026-05-01 10:42 | 44.59679 | 20.90760 | 36329 ft | 453 kts | 326° |
| 2026-05-01 10:43 | 44.64738 | 20.85515 | 36330 ft | 452 kts | 326° |
| 2026-05-01 10:43 | 44.69772 | 20.80284 | 36326 ft | 453 kts | 326° |
| 2026-05-01 10:44 | 44.73158 | 20.76761 | 36328 ft | 453 kts | 326° |
| 2026-05-01 10:44 | 44.76878 | 20.72883 | 36327 ft | 453 kts | 326° |
| 2026-05-01 10:45 | 44.81924 | 20.67614 | 36328 ft | 453 kts | 326° |
| 2026-05-01 10:45 | 44.86985 | 20.62317 | 36338 ft | 453 kts | 326° |
| 2026-05-01 10:46 | 44.92040 | 20.57013 | 36335 ft | 453 kts | 326° |
| 2026-05-01 10:46 | 44.97062 | 20.51733 | 36338 ft | 453 kts | 326° |
| 2026-05-01 10:47 | 45.02113 | 20.46411 | 36329 ft | 453 kts | 326° |
| 2026-05-01 10:47 | 45.07164 | 20.41076 | 36329 ft | 453 kts | 326° |
| 2026-05-01 10:48 | 45.11354 | 20.36642 | 36313 ft | 453 kts | 326° |
| 2026-05-01 10:48 | 45.16104 | 20.31602 | 36330 ft | 453 kts | 327° |
| 2026-05-01 10:49 | 45.21133 | 20.26258 | 36335 ft | 453 kts | 327° |
| 2026-05-01 10:49 | 45.26141 | 20.20925 | 36333 ft | 453 kts | 327° |
| 2026-05-01 10:50 | 45.31175 | 20.15550 | 36332 ft | 453 kts | 327° |
| 2026-05-01 10:50 | 45.36218 | 20.10153 | 36329 ft | 453 kts | 327° |
| 2026-05-01 10:51 | 45.41248 | 20.04758 | 36336 ft | 453 kts | 327° |
| 2026-05-01 10:51 | 45.46274 | 19.99356 | 36336 ft | 453 kts | 327° |
| 2026-05-01 10:52 | 45.51302 | 19.93939 | 36337 ft | 453 kts | 327° |
| 2026-05-01 10:52 | 45.56281 | 19.88562 | 36341 ft | 453 kts | 327° |
| 2026-05-01 10:53 | 45.61311 | 19.83117 | 36340 ft | 452 kts | 327° |
| 2026-05-01 10:53 | 45.66319 | 19.77683 | 36340 ft | 452 kts | 328° |
| 2026-05-01 10:54 | 45.71321 | 19.72244 | 36343 ft | 451 kts | 328° |
| 2026-05-01 10:54 | 45.76327 | 19.66790 | 36343 ft | 451 kts | 328° |
| 2026-05-01 10:55 | 45.81321 | 19.61335 | 36344 ft | 451 kts | 328° |
| 2026-05-01 10:55 | 45.86284 | 19.55900 | 36346 ft | 451 kts | 328° |
| 2026-05-01 10:56 | 45.91280 | 19.50417 | 36345 ft | 451 kts | 328° |
| 2026-05-01 10:56 | 45.96264 | 19.44933 | 36349 ft | 451 kts | 328° |
| 2026-05-01 10:57 | 46.01246 | 19.39442 | 36349 ft | 451 kts | 328° |
| 2026-05-01 10:57 | 46.06206 | 19.33884 | 36347 ft | 452 kts | 327° |
| 2026-05-01 10:58 | 46.11063 | 19.28079 | 36349 ft | 454 kts | 326° |
| 2026-05-01 10:58 | 46.15886 | 19.22200 | 36354 ft | 454 kts | 326° |
| 2026-05-01 10:59 | 46.20711 | 19.16326 | 36354 ft | 453 kts | 327° |
| 2026-05-01 10:59 | 46.25506 | 19.10506 | 36329 ft | 453 kts | 327° |
| 2026-05-01 11:00 | 46.30348 | 19.04625 | 36361 ft | 454 kts | 327° |
| 2026-05-01 11:00 | 46.35180 | 18.98740 | 36371 ft | 454 kts | 327° |
| 2026-05-01 11:01 | 46.40017 | 18.92838 | 36359 ft | 454 kts | 327° |
| 2026-05-01 11:01 | 46.44810 | 18.86974 | 36359 ft | 454 kts | 327° |
| 2026-05-01 11:02 | 46.49636 | 18.81055 | 36353 ft | 454 kts | 327° |
| 2026-05-01 11:02 | 46.54448 | 18.75138 | 36363 ft | 454 kts | 327° |
| 2026-05-01 11:03 | 46.59271 | 18.69194 | 36364 ft | 454 kts | 327° |
| 2026-05-01 11:03 | 46.64076 | 18.63258 | 36365 ft | 454 kts | 327° |
| 2026-05-01 11:04 | 46.68895 | 18.57291 | 36368 ft | 454 kts | 327° |
| 2026-05-01 11:04 | 46.73693 | 18.51331 | 36361 ft | 453 kts | 327° |
| 2026-05-01 11:05 | 46.78470 | 18.45386 | 36364 ft | 452 kts | 327° |
| 2026-05-01 11:05 | 46.83240 | 18.39437 | 36361 ft | 452 kts | 327° |
| 2026-05-01 11:06 | 46.88024 | 18.33456 | 36364 ft | 452 kts | 327° |
| 2026-05-01 11:06 | 46.92803 | 18.27466 | 36339 ft | 452 kts | 327° |
| 2026-05-01 11:07 | 46.99936 | 18.18495 | 36365 ft | 450 kts | 327° |
| 2026-05-01 11:07 | 47.04653 | 18.12547 | 36366 ft | 449 kts | 327° |
| 2026-05-01 11:08 | 47.09387 | 18.06563 | 36365 ft | 449 kts | 327° |
| 2026-05-01 11:09 | 47.16485 | 17.97564 | 36361 ft | 449 kts | 327° |
| 2026-05-01 11:09 | 47.21215 | 17.91546 | 36369 ft | 449 kts | 327° |
| 2026-05-01 11:10 | 47.28267 | 17.82547 | 36370 ft | 447 kts | 327° |
| 2026-05-01 11:10 | 47.32970 | 17.76528 | 36372 ft | 447 kts | 327° |
| 2026-05-01 11:11 | 47.37666 | 17.70506 | 36341 ft | 447 kts | 326° |
| 2026-05-01 11:11 | 47.42349 | 17.64483 | 36372 ft | 446 kts | 326° |
| 2026-05-01 11:12 | 47.47007 | 17.58479 | 36374 ft | 446 kts | 326° |
| 2026-05-01 11:12 | 47.51684 | 17.52435 | 36375 ft | 446 kts | 326° |
| 2026-05-01 11:13 | 47.56366 | 17.46369 | 36376 ft | 446 kts | 326° |
| 2026-05-01 11:13 | 47.61036 | 17.40304 | 36353 ft | 446 kts | 326° |
| 2026-05-01 11:14 | 47.65705 | 17.34225 | 36385 ft | 446 kts | 326° |
| 2026-05-01 11:14 | 47.70341 | 17.28174 | 36378 ft | 446 kts | 326° |
| 2026-05-01 11:15 | 47.75009 | 17.22066 | 36382 ft | 446 kts | 326° |
| 2026-05-01 11:15 | 47.78878 | 17.16993 | 36376 ft | 446 kts | 326° |
| 2026-05-01 11:16 | 47.83637 | 17.11120 | 36362 ft | 439 kts | 332° |
| 2026-05-01 11:16 | 47.88712 | 17.06075 | 36384 ft | 438 kts | 334° |
| 2026-05-01 11:17 | 47.93849 | 17.01182 | 36381 ft | 437 kts | 334° |
| 2026-05-01 11:17 | 47.98994 | 16.96311 | 36380 ft | 438 kts | 334° |
| 2026-05-01 11:18 | 48.04129 | 16.91423 | 36378 ft | 438 kts | 334° |
| 2026-05-01 11:18 | 48.09257 | 16.86515 | 36395 ft | 438 kts | 334° |
| 2026-05-01 11:19 | 48.14354 | 16.81619 | 36396 ft | 438 kts | 334° |
| 2026-05-01 11:19 | 48.19477 | 16.76687 | 36397 ft | 438 kts | 334° |
| 2026-05-01 11:20 | 48.24598 | 16.71746 | 36397 ft | 438 kts | 334° |
| 2026-05-01 11:20 | 48.29721 | 16.66790 | 36397 ft | 438 kts | 334° |
| 2026-05-01 11:21 | 48.34843 | 16.61825 | 36394 ft | 438 kts | 333° |
| 2026-05-01 11:21 | 48.39966 | 16.56846 | 36370 ft | 438 kts | 333° |
| 2026-05-01 11:22 | 48.45097 | 16.51846 | 36392 ft | 439 kts | 333° |
| 2026-05-01 11:22 | 48.50218 | 16.46843 | 36391 ft | 439 kts | 333° |
| 2026-05-01 11:23 | 48.55348 | 16.41820 | 36390 ft | 439 kts | 333° |
| 2026-05-01 11:23 | 48.60435 | 16.36828 | 36390 ft | 439 kts | 333° |
| 2026-05-01 11:24 | 48.65554 | 16.31792 | 36390 ft | 439 kts | 333° |
| 2026-05-01 11:25 | 48.73230 | 16.24217 | 36386 ft | 439 kts | 333° |
| 2026-05-01 11:25 | 48.81281 | 16.17925 | 36363 ft | 431 kts | 342° |
| 2026-05-01 11:26 | 48.84033 | 16.16207 | 35837 ft | 424 kts | 343° |
| 2026-05-01 11:26 | 48.89561 | 16.12886 | 33616 ft | 431 kts | 344° |
| 2026-05-01 11:26 | 48.92372 | 16.11220 | 32374 ft | 435 kts | 344° |
| 2026-05-01 11:27 | 48.95166 | 16.09557 | 31159 ft | 438 kts | 343° |
| 2026-05-01 11:27 | 48.98011 | 16.07854 | 29914 ft | 440 kts | 343° |
| 2026-05-01 11:27 | 49.00845 | 16.06142 | 28914 ft | 434 kts | 343° |
| 2026-05-01 11:27 | 49.03633 | 16.04449 | 27939 ft | 428 kts | 343° |
| 2026-05-01 11:28 | 49.06380 | 16.02777 | 26976 ft | 423 kts | 343° |
| 2026-05-01 11:28 | 49.09095 | 16.01123 | 26087 ft | 418 kts | 343° |
| 2026-05-01 11:28 | 49.11780 | 15.99488 | 25236 ft | 413 kts | 343° |
| 2026-05-01 11:29 | 49.17054 | 15.96274 | 23503 ft | 404 kts | 344° |
| 2026-05-01 11:29 | 49.19652 | 15.94690 | 22547 ft | 399 kts | 343° |
| 2026-05-01 11:29 | 49.24745 | 15.91585 | 21456 ft | 396 kts | 343° |
| 2026-05-01 11:30 | 49.27307 | 15.90022 | 21388 ft | 396 kts | 343° |
| 2026-05-01 11:30 | 49.29856 | 15.88455 | 21385 ft | 395 kts | 343° |
| 2026-05-01 11:30 | 49.32404 | 15.86887 | 21380 ft | 394 kts | 343° |
| 2026-05-01 11:30 | 49.34952 | 15.85324 | 21390 ft | 394 kts | 343° |
| 2026-05-01 11:31 | 49.37495 | 15.83765 | 21391 ft | 393 kts | 343° |
| 2026-05-01 11:31 | 49.40040 | 15.82204 | 21390 ft | 393 kts | 343° |
| 2026-05-01 11:31 | 49.42576 | 15.80602 | 21359 ft | 396 kts | 340° |
| 2026-05-01 11:31 | 49.44966 | 15.78416 | 21394 ft | 404 kts | 329° |
| 2026-05-01 11:32 | 49.47033 | 15.75430 | 21376 ft | 412 kts | 315° |
| 2026-05-01 11:32 | 49.48642 | 15.71810 | 20850 ft | 409 kts | 305° |
| 2026-05-01 11:32 | 49.50002 | 15.67954 | 19875 ft | 410 kts | 302° |
| 2026-05-01 11:32 | 49.51300 | 15.64058 | 18950 ft | 409 kts | 302° |
| 2026-05-01 11:33 | 49.52575 | 15.60215 | 18034 ft | 405 kts | 302° |
| 2026-05-01 11:33 | 49.53841 | 15.56411 | 17135 ft | 399 kts | 302° |
| 2026-05-01 11:33 | 49.55104 | 15.52635 | 16287 ft | 394 kts | 302° |
| 2026-05-01 11:33 | 49.56352 | 15.48909 | 15556 ft | 390 kts | 302° |
| 2026-05-01 11:34 | 49.57595 | 15.45204 | 15118 ft | 389 kts | 302° |
| 2026-05-01 11:34 | 49.58840 | 15.41493 | 14977 ft | 388 kts | 302° |
| 2026-05-01 11:34 | 49.60079 | 15.37799 | 14964 ft | 387 kts | 302° |
| 2026-05-01 11:34 | 49.61313 | 15.34110 | 14965 ft | 387 kts | 302° |
| 2026-05-01 11:35 | 49.62546 | 15.30419 | 14964 ft | 387 kts | 302° |
| 2026-05-01 11:35 | 49.63776 | 15.26734 | 14963 ft | 387 kts | 302° |
| 2026-05-01 11:35 | 49.65021 | 15.23004 | 14977 ft | 403 kts | 302° |
| 2026-05-01 11:35 | 49.66341 | 15.19058 | 14974 ft | 422 kts | 301° |
| 2026-05-01 11:36 | 49.67695 | 15.14987 | 14966 ft | 428 kts | 301° |
| 2026-05-01 11:36 | 49.69052 | 15.10884 | 14970 ft | 430 kts | 301° |
| 2026-05-01 11:36 | 49.70481 | 15.06836 | 14969 ft | 427 kts | 307° |
| 2026-05-01 11:36 | 49.72195 | 15.03111 | 14975 ft | 425 kts | 311° |
| 2026-05-01 11:37 | 49.74001 | 14.99487 | 14993 ft | 425 kts | 312° |
| 2026-05-01 11:37 | 49.75796 | 14.95924 | 15003 ft | 425 kts | 312° |
| 2026-05-01 11:37 | 49.77612 | 14.92310 | 15002 ft | 426 kts | 312° |
| 2026-05-01 11:37 | 49.79431 | 14.88690 | 14999 ft | 425 kts | 313° |
| 2026-05-01 11:38 | 49.81516 | 14.85522 | 14991 ft | 417 kts | 329° |
| 2026-05-01 11:38 | 49.84075 | 14.83570 | 14992 ft | 406 kts | 347° |
| 2026-05-01 11:38 | 49.86787 | 14.82710 | 14641 ft | 389 kts | 355° |
| 2026-05-01 11:38 | 49.89428 | 14.82163 | 13516 ft | 377 kts | 356° |
| 2026-05-01 11:39 | 49.91985 | 14.81658 | 11648 ft | 366 kts | 356° |
| 2026-05-01 11:39 | 49.94508 | 14.81134 | 9477 ft | 366 kts | 355° |
| 2026-05-01 11:39 | 49.97010 | 14.80581 | 7422 ft | 362 kts | 354° |
| 2026-05-01 11:39 | 49.99496 | 14.79861 | 6029 ft | 365 kts | 345° |
| 2026-05-01 11:40 | 50.01830 | 14.78393 | 5349 ft | 359 kts | 332° |
| 2026-05-01 11:40 | 50.03703 | 14.76057 | 5040 ft | 330 kts | 310° |
| 2026-05-01 11:40 | 50.04815 | 14.73150 | 4981 ft | 301 kts | 292° |
| 2026-05-01 11:40 | 50.05214 | 14.70102 | 4979 ft | 276 kts | 273° |
| 2026-05-01 11:41 | 50.05014 | 14.67229 | 4993 ft | 270 kts | 256° |
| 2026-05-01 11:41 | 50.04364 | 14.64485 | 4994 ft | 271 kts | 247° |
| 2026-05-01 11:41 | 50.03577 | 14.61817 | 4990 ft | 271 kts | 246° |
| 2026-05-01 11:41 | 50.02770 | 14.59165 | 4997 ft | 272 kts | 245° |
| 2026-05-01 11:42 | 50.01967 | 14.56508 | 4991 ft | 271 kts | 246° |
| 2026-05-01 11:42 | 50.01169 | 14.53844 | 4995 ft | 272 kts | 247° |
| 2026-05-01 11:42 | 50.00631 | 14.51056 | 4989 ft | 270 kts | 265° |
| 2026-05-01 11:42 | 50.00804 | 14.48193 | 4997 ft | 266 kts | 290° |
| 2026-05-01 11:43 | 50.01729 | 14.45749 | 4994 ft | 263 kts | 315° |
| 2026-05-01 11:43 | 50.03214 | 14.44143 | 4988 ft | 261 kts | 339° |
| 2026-05-01 11:43 | 50.04986 | 14.43665 | 4996 ft | 260 kts | 4° |
| 2026-05-01 11:44 | 50.07912 | 14.46070 | 5003 ft | 224 kts | 52° |
| 2026-05-01 11:44 | 50.08685 | 14.48128 | 5003 ft | 219 kts | 63° |
| 2026-05-01 11:44 | 50.09327 | 14.50282 | 4995 ft | 220 kts | 64° |
| 2026-05-01 11:44 | 50.09951 | 14.52452 | 4989 ft | 220 kts | 64° |
| 2026-05-01 11:45 | 50.10580 | 14.54627 | 4996 ft | 219 kts | 64° |
| 2026-05-01 11:45 | 50.11211 | 14.56790 | 4995 ft | 219 kts | 64° |
| 2026-05-01 11:45 | 50.11847 | 14.58948 | 4992 ft | 219 kts | 64° |
| 2026-05-01 11:45 | 50.12478 | 14.61078 | 4993 ft | 219 kts | 64° |
| 2026-05-01 11:46 | 50.13121 | 14.63227 | 4995 ft | 219 kts | 64° |
| 2026-05-01 11:46 | 50.13766 | 14.65384 | 4986 ft | 219 kts | 63° |
| 2026-05-01 11:46 | 50.14408 | 14.67541 | 4993 ft | 219 kts | 64° |
| 2026-05-01 11:46 | 50.15048 | 14.69690 | 4993 ft | 219 kts | 64° |
| 2026-05-01 11:47 | 50.15691 | 14.71851 | 4990 ft | 219 kts | 64° |
| 2026-05-01 11:47 | 50.16377 | 14.73952 | 4989 ft | 210 kts | 56° |
| 2026-05-01 11:47 | 50.17307 | 14.75553 | 4968 ft | 190 kts | 36° |
| 2026-05-01 11:47 | 50.18468 | 14.76438 | 4985 ft | 186 kts | 13° |
| 2026-05-01 11:48 | 50.19749 | 14.76432 | 4996 ft | 186 kts | 346° |
| 2026-05-01 11:48 | 50.20878 | 14.75461 | 4990 ft | 188 kts | 317° |
| 2026-05-01 11:48 | 50.21569 | 14.73730 | 4983 ft | 191 kts | 289° |
| 2026-05-01 11:48 | 50.21692 | 14.71660 | 4991 ft | 194 kts | 264° |
| 2026-05-01 11:49 | 50.20873 | 14.65944 | 4997 ft | 195 kts | 258° |
| 2026-05-01 11:49 | 50.20583 | 14.63878 | 4992 ft | 196 kts | 260° |
| 2026-05-01 11:50 | 50.20306 | 14.61796 | 4992 ft | 196 kts | 261° |